createdAt,value
2022-08-19T00:00:31.007Z,23.20
2022-08-19T00:02:58.995Z,23.20
2022-08-19T00:05:27.097Z,23.10
2022-08-19T00:07:54.985Z,23.10
2022-08-19T00:10:23.285Z,23.00
2022-08-19T00:12:51.275Z,23.00
2022-08-19T00:15:23.008Z,22.90
2022-08-19T00:17:51.255Z,22.90
2022-08-19T00:20:21.478Z,22.80
2022-08-19T00:22:50.169Z,22.80
2022-08-19T00:25:19.212Z,22.80
2022-08-19T00:27:58.422Z,22.80
2022-08-19T00:30:28.779Z,22.70
2022-08-19T00:32:57.319Z,22.70
2022-08-19T00:35:25.488Z,22.60
2022-08-19T00:37:53.420Z,22.50
2022-08-19T00:40:21.891Z,22.50
2022-08-19T00:42:49.928Z,22.50
2022-08-19T00:45:21.057Z,22.60
2022-08-19T00:47:50.444Z,22.60
2022-08-19T00:50:21.929Z,22.70
2022-08-19T00:52:53.134Z,22.80
2022-08-19T00:55:25.657Z,22.90
2022-08-19T00:57:57.121Z,22.90
2022-08-19T01:00:26.494Z,22.90
2022-08-19T01:02:56.545Z,22.90
2022-08-19T01:05:28.432Z,23.00
2022-08-19T01:07:58.635Z,23.00
2022-08-19T01:10:36.118Z,23.10
2022-08-19T01:13:05.586Z,23.00
2022-08-19T01:15:35.924Z,23.00
2022-08-19T01:18:10.109Z,23.00
2022-08-19T01:20:38.076Z,23.00
2022-08-19T01:23:07.300Z,22.90
2022-08-19T01:25:40.517Z,22.90
2022-08-19T01:28:10.990Z,22.90
2022-08-19T01:30:40.046Z,22.90
2022-08-19T01:33:12.356Z,22.90
2022-08-19T01:35:40.338Z,22.90
2022-08-19T01:38:12.453Z,22.90
2022-08-19T01:40:43.111Z,22.80
2022-08-19T01:43:11.075Z,22.80
2022-08-19T01:45:41.106Z,22.80
2022-08-19T01:48:09.824Z,22.80
2022-08-19T01:50:38.877Z,22.80
2022-08-19T01:53:12.362Z,22.80
2022-08-19T01:55:43.194Z,22.80
2022-08-19T01:58:14.421Z,22.70
2022-08-19T02:00:42.766Z,22.70
2022-08-19T02:03:12.274Z,22.70
2022-08-19T02:05:40.518Z,22.70
2022-08-19T02:08:10.581Z,22.60
2022-08-19T02:10:41.928Z,22.60
2022-08-19T02:13:09.859Z,22.60
2022-08-19T02:15:38.927Z,22.60
2022-08-19T02:18:08.343Z,22.60
2022-08-19T02:20:36.636Z,22.60
2022-08-19T02:23:04.793Z,22.60
2022-08-19T02:25:34.084Z,22.70
2022-08-19T02:28:01.926Z,22.70
2022-08-19T02:30:30.052Z,22.70
2022-08-19T02:32:59.031Z,22.70
2022-08-19T02:35:27.865Z,22.70
2022-08-19T02:38:13.493Z,22.70
2022-08-19T02:40:42.696Z,22.70
2022-08-19T02:43:11.191Z,22.70
2022-08-19T02:45:41.564Z,22.70
2022-08-19T02:48:21.315Z,22.70
2022-08-19T02:50:56.170Z,22.70
2022-08-19T02:53:25.992Z,22.60
2022-08-19T02:55:55.526Z,22.70
2022-08-19T02:58:25.254Z,22.70
2022-08-19T03:00:55.520Z,22.70
2022-08-19T03:03:23.542Z,22.70
2022-08-19T03:05:56.768Z,22.70
2022-08-19T03:08:26.553Z,22.70
2022-08-19T03:10:55.838Z,22.70
2022-08-19T03:13:24.254Z,22.60
2022-08-19T03:15:52.203Z,22.60
2022-08-19T03:18:20.084Z,22.60
2022-08-19T03:20:53.832Z,22.60
2022-08-19T03:23:22.596Z,22.60
2022-08-19T03:26:03.981Z,22.60
2022-08-19T03:28:42.394Z,22.60
2022-08-19T03:31:44.941Z,22.60
2022-08-19T03:34:06.661Z,22.60
2022-08-19T03:36:36.103Z,22.60
2022-08-19T03:39:04.597Z,22.50
2022-08-19T03:41:45.306Z,22.50
2022-08-19T03:44:17.835Z,22.50
2022-08-19T03:46:47.589Z,22.50
2022-08-19T03:49:15.530Z,22.40
2022-08-19T03:51:46.925Z,22.40
2022-08-19T03:54:16.771Z,22.40
2022-08-19T03:56:46.346Z,22.50
2022-08-19T03:59:18.632Z,22.50
2022-08-19T04:01:46.707Z,22.40
2022-08-19T04:04:14.646Z,22.40
2022-08-19T04:06:42.555Z,22.40
2022-08-19T04:09:12.615Z,22.40
2022-08-19T04:11:44.945Z,22.40
2022-08-19T04:14:16.442Z,22.30
2022-08-19T04:16:45.479Z,22.30
2022-08-19T04:19:14.175Z,22.30
2022-08-19T04:21:42.625Z,22.30
2022-08-19T04:24:11.902Z,22.30
2022-08-19T04:26:40.052Z,22.40
2022-08-19T04:29:12.878Z,22.30
2022-08-19T04:31:45.606Z,22.30
2022-08-19T04:34:17.410Z,22.30
2022-08-19T04:36:46.680Z,22.20
2022-08-19T04:39:18.199Z,22.30
2022-08-19T04:42:04.649Z,22.30
2022-08-19T04:44:33.381Z,22.30
2022-08-19T04:47:11.288Z,22.40
2022-08-19T04:49:39.935Z,22.40
2022-08-19T04:52:10.680Z,22.50
2022-08-19T04:54:39.512Z,22.40
2022-08-19T04:57:11.469Z,22.50
2022-08-19T04:59:40.723Z,22.50
2022-08-19T05:02:11.286Z,22.50
2022-08-19T05:04:40.460Z,22.60
2022-08-19T05:07:09.135Z,22.60
2022-08-19T05:09:58.403Z,22.60
2022-08-19T05:12:29.252Z,22.70
2022-08-19T05:14:58.759Z,22.70
2022-08-19T05:17:32.386Z,22.70
2022-08-19T05:20:20.509Z,22.70
2022-08-19T05:22:49.412Z,22.70
2022-08-19T05:25:20.600Z,22.70
2022-08-19T05:27:49.569Z,22.60
2022-08-19T05:30:18.532Z,22.70
2022-08-19T05:32:48.043Z,22.80
2022-08-19T05:35:15.939Z,22.80
2022-08-19T05:37:43.807Z,23.00
2022-08-19T05:40:13.316Z,23.10
2022-08-19T05:42:43.232Z,23.20
2022-08-19T05:45:12.360Z,23.40
2022-08-19T05:47:42.070Z,23.40
2022-08-19T05:50:11.979Z,23.40
2022-08-19T05:52:43.698Z,23.50
2022-08-19T05:55:14.519Z,23.50
2022-08-19T05:57:42.558Z,23.70
2022-08-19T06:00:12.571Z,23.80
2022-08-19T06:02:41.460Z,23.90
2022-08-19T06:05:12.625Z,24.00
2022-08-19T06:07:41.637Z,24.20
2022-08-19T06:10:13.088Z,24.60
2022-08-19T06:12:41.206Z,25.30
2022-08-19T06:15:11.909Z,26.40
2022-08-19T06:17:40.106Z,27.50
2022-08-19T06:20:12.862Z,28.30
2022-08-19T06:22:43.725Z,28.60
2022-08-19T06:25:12.763Z,28.80
2022-08-19T06:27:58.647Z,28.90
2022-08-19T06:30:30.266Z,28.90
2022-08-19T06:32:58.174Z,28.80
2022-08-19T06:35:26.384Z,28.90
2022-08-19T06:37:55.789Z,29.60
2022-08-19T06:40:24.216Z,30.10
2022-08-19T06:42:55.213Z,30.10
2022-08-19T06:45:25.069Z,29.90
2022-08-19T06:48:02.792Z,29.40
2022-08-19T06:50:31.397Z,28.70
2022-08-19T06:53:04.321Z,28.20
2022-08-19T06:55:33.384Z,27.80
2022-08-19T06:58:04.814Z,27.40
2022-08-19T07:00:33.172Z,27.00
2022-08-19T07:03:06.180Z,26.60
2022-08-19T07:05:40.890Z,26.30
2022-08-19T07:08:14.862Z,26.00
2022-08-19T07:10:45.811Z,25.70
2022-08-19T07:13:14.027Z,25.70
2022-08-19T07:15:42.194Z,25.70
2022-08-19T07:18:11.721Z,25.60
2022-08-19T07:20:40.319Z,25.70
2022-08-19T07:23:15.940Z,25.60
2022-08-19T07:25:52.850Z,25.40
2022-08-19T07:28:24.622Z,25.30
2022-08-19T07:30:53.670Z,25.30
2022-08-19T07:33:22.090Z,25.20
2022-08-19T07:35:50.690Z,25.10
2022-08-19T07:38:18.831Z,25.00
2022-08-19T07:40:48.132Z,25.00
2022-08-19T07:43:23.346Z,24.80
2022-08-19T07:45:51.394Z,24.70
2022-08-19T07:48:19.413Z,24.60
2022-08-19T07:50:49.394Z,24.50
2022-08-19T07:53:17.356Z,24.40
2022-08-19T07:55:46.903Z,24.20
2022-08-19T07:58:17.063Z,24.10
2022-08-19T08:00:47.140Z,24.10
2022-08-19T08:03:16.314Z,23.90
2022-08-19T08:06:07.093Z,23.90
2022-08-19T08:08:52.915Z,24.10
2022-08-19T08:11:23.999Z,24.00
2022-08-19T08:14:01.347Z,24.10
2022-08-19T08:16:39.577Z,24.20
2022-08-19T08:19:14.722Z,24.30
2022-08-19T08:21:54.726Z,24.50
2022-08-19T08:24:22.720Z,24.90
2022-08-19T08:26:59.855Z,25.10
2022-08-19T08:29:35.061Z,25.30
2022-08-19T08:32:03.503Z,25.40
2022-08-19T08:34:31.443Z,25.50
2022-08-19T08:36:59.412Z,25.50
2022-08-19T08:39:27.381Z,25.50
2022-08-19T08:42:10.209Z,25.40
2022-08-19T08:47:30.504Z,25.20
2022-08-19T08:50:06.491Z,25.10
2022-08-19T08:52:37.773Z,25.10
2022-08-19T08:55:12.108Z,24.80
2022-08-19T08:57:55.890Z,24.70
2022-08-19T09:00:27.587Z,24.50
2022-08-19T09:02:59.467Z,24.40
2022-08-19T09:05:48.638Z,24.40
2022-08-19T09:08:25.570Z,24.20
2022-08-19T09:10:56.328Z,24.10
2022-08-19T09:13:37.236Z,24.10
2022-08-19T09:16:08.719Z,23.90
2022-08-19T09:18:43.071Z,24.00
2022-08-19T09:21:11.814Z,23.80
2022-08-19T09:23:39.937Z,23.80
2022-08-19T09:26:14.517Z,23.80
2022-08-19T09:28:48.773Z,23.70
2022-08-19T09:31:19.502Z,23.80
2022-08-19T09:33:47.522Z,24.00
2022-08-19T09:36:21.746Z,24.20
2022-08-19T09:38:59.214Z,24.10
2022-08-19T09:41:28.646Z,24.10
2022-08-19T09:44:00.273Z,24.10
2022-08-19T09:46:31.554Z,24.00
2022-08-19T09:49:06.127Z,23.90
2022-08-19T09:51:35.267Z,23.90
2022-08-19T09:54:05.194Z,23.90
2022-08-19T09:56:34.270Z,23.90
2022-08-19T09:59:05.502Z,24.00
2022-08-19T10:01:34.229Z,24.10
2022-08-19T10:04:06.374Z,24.20
2022-08-19T10:06:46.737Z,24.20
2022-08-19T10:09:15.558Z,24.20
2022-08-19T10:11:53.981Z,24.20
2022-08-19T10:14:24.610Z,24.10
2022-08-19T10:16:53.131Z,24.20
2022-08-19T10:19:25.427Z,24.20
2022-08-19T10:21:55.878Z,24.30
2022-08-19T10:24:29.188Z,24.30
2022-08-19T10:26:59.720Z,24.30
2022-08-19T10:29:32.293Z,24.20
2022-08-19T10:32:02.984Z,24.20
2022-08-19T10:34:32.561Z,24.20
2022-08-19T10:37:02.328Z,24.20
2022-08-19T10:39:32.602Z,24.00
2022-08-19T10:42:11.760Z,24.10
2022-08-19T10:44:41.456Z,24.00
2022-08-19T10:47:17.738Z,23.90
2022-08-19T10:50:11.770Z,23.90
2022-08-19T10:52:49.498Z,24.00
2022-08-19T10:55:38.185Z,24.10
2022-08-19T10:58:06.906Z,24.20
2022-08-19T11:00:41.511Z,24.20
2022-08-19T11:03:09.771Z,24.10
2022-08-19T11:05:40.570Z,24.10
2022-08-19T11:08:22.218Z,24.10
2022-08-19T11:10:52.004Z,24.10
2022-08-19T11:13:20.318Z,24.00
2022-08-19T11:15:51.115Z,24.10
2022-08-19T11:18:19.186Z,24.10
2022-08-19T11:20:47.155Z,24.10
2022-08-19T11:23:15.154Z,24.00
2022-08-19T11:25:43.262Z,24.00
2022-08-19T11:28:11.265Z,24.00
2022-08-19T11:30:39.843Z,24.00
2022-08-19T11:33:11.920Z,23.90
2022-08-19T11:35:42.322Z,23.90
2022-08-19T11:38:10.451Z,23.90
2022-08-19T11:40:38.562Z,23.90
2022-08-19T11:43:07.230Z,23.90
2022-08-19T11:45:35.223Z,23.90
2022-08-19T11:48:04.556Z,23.90
2022-08-19T11:50:33.827Z,23.80
2022-08-19T11:53:01.813Z,23.80
2022-08-19T11:55:29.817Z,23.80
2022-08-19T11:57:57.858Z,23.70
2022-08-19T12:00:25.843Z,23.60
2022-08-19T12:02:53.979Z,23.30
2022-08-19T12:05:22.070Z,23.10
2022-08-19T12:07:51.707Z,22.80
2022-08-19T12:10:26.304Z,22.60
2022-08-19T12:12:55.802Z,22.40
2022-08-19T12:15:36.955Z,22.30
2022-08-19T12:18:06.938Z,22.10
2022-08-19T12:20:37.277Z,22.10
2022-08-19T12:23:07.847Z,22.10
2022-08-19T12:25:35.963Z,22.10
2022-08-19T12:28:05.128Z,22.10
2022-08-19T12:30:33.229Z,22.00
2022-08-19T12:33:01.326Z,21.90
2022-08-19T12:35:29.807Z,21.90
2022-08-19T12:37:57.964Z,21.90
2022-08-19T12:40:27.689Z,21.80
2022-08-19T12:42:56.024Z,21.70
2022-08-19T12:45:24.089Z,21.70
2022-08-19T12:48:34.404Z,21.70
2022-08-19T12:50:56.711Z,21.60
2022-08-19T12:53:35.241Z,21.70
2022-08-19T12:56:12.304Z,21.80
2022-08-19T12:58:48.635Z,22.00
2022-08-19T13:01:22.566Z,22.00
2022-08-19T13:03:53.122Z,22.00
2022-08-19T13:06:21.425Z,22.10
2022-08-19T13:08:49.755Z,22.10
2022-08-19T13:11:21.374Z,22.10
2022-08-19T13:13:52.003Z,22.20
2022-08-19T13:16:21.451Z,22.20
2022-08-19T13:18:52.868Z,22.30
2022-08-19T13:21:22.609Z,22.40
2022-08-19T13:23:51.699Z,22.50
2022-08-19T13:26:21.230Z,22.70
2022-08-19T13:29:07.063Z,22.70
2022-08-19T13:31:56.322Z,22.80
2022-08-19T13:34:31.836Z,23.00
2022-08-19T13:37:00.528Z,23.00
2022-08-19T13:39:28.944Z,23.00
2022-08-19T13:41:58.658Z,23.00
2022-08-19T13:44:27.413Z,22.90
2022-08-19T13:46:55.434Z,22.90
2022-08-19T13:49:24.234Z,22.90
2022-08-19T13:51:52.442Z,23.00
2022-08-19T13:54:20.491Z,23.00
2022-08-19T13:56:48.531Z,23.00
2022-08-19T13:59:18.657Z,23.00
2022-08-19T14:01:46.910Z,23.00
2022-08-19T14:04:15.028Z,22.90
2022-08-19T14:06:43.266Z,22.70
2022-08-19T14:09:11.365Z,22.60
2022-08-19T14:11:39.641Z,22.50
2022-08-19T14:14:07.617Z,22.40
2022-08-19T14:16:37.089Z,22.30
2022-08-19T14:19:05.160Z,22.20
2022-08-19T14:21:33.470Z,22.20
2022-08-19T14:24:02.594Z,22.10
2022-08-19T14:26:30.672Z,21.90
2022-08-19T14:29:02.319Z,21.90
2022-08-19T14:31:31.047Z,21.80
2022-08-19T14:34:00.607Z,21.70
2022-08-19T14:36:29.204Z,21.60
2022-08-19T14:38:59.091Z,21.30
2022-08-19T14:41:28.246Z,21.20
2022-08-19T14:43:56.819Z,21.10
2022-08-19T14:46:28.278Z,21.00
2022-08-19T14:48:59.990Z,21.00
2022-08-19T14:51:29.752Z,20.90
2022-08-19T14:54:01.517Z,20.80
2022-08-19T14:56:34.204Z,20.80
2022-08-19T14:59:02.653Z,20.70
2022-08-19T15:01:31.385Z,20.70
2022-08-19T15:03:59.658Z,20.60
2022-08-19T15:06:30.263Z,20.60
2022-08-19T15:09:03.348Z,20.60
2022-08-19T15:11:33.439Z,20.60
2022-08-19T15:14:02.351Z,20.60
2022-08-19T15:16:30.526Z,20.60
2022-08-19T15:19:00.984Z,20.60
2022-08-19T15:21:31.443Z,20.60
2022-08-19T15:24:00.613Z,20.60
2022-08-19T15:26:33.123Z,20.70
2022-08-19T15:29:02.132Z,20.60
2022-08-19T15:31:38.227Z,20.60
2022-08-19T15:34:07.448Z,20.60
2022-08-19T15:36:37.278Z,20.60
2022-08-19T15:39:06.452Z,20.50
2022-08-19T15:41:34.819Z,20.50
2022-08-19T15:44:09.066Z,20.50
2022-08-19T15:46:39.326Z,20.40
2022-08-19T15:49:08.355Z,20.30
2022-08-19T15:51:39.541Z,20.30
2022-08-19T15:54:09.464Z,20.30
2022-08-19T15:57:07.632Z,20.20
2022-08-19T15:59:54.594Z,20.20
2022-08-19T16:02:44.096Z,20.20
2022-08-19T16:05:40.027Z,20.20
2022-08-19T16:08:10.222Z,20.10
2022-08-19T16:10:38.831Z,20.20
2022-08-19T16:13:07.044Z,20.20
2022-08-19T16:15:35.230Z,20.10
2022-08-19T16:18:04.101Z,20.10
2022-08-19T16:20:33.081Z,20.10
2022-08-19T16:23:05.139Z,20.10
2022-08-19T16:25:34.649Z,20.10
2022-08-19T16:28:07.289Z,20.10
2022-08-19T16:30:37.699Z,20.10
2022-08-19T16:33:05.912Z,20.00
2022-08-19T16:35:33.920Z,20.00
2022-08-19T16:38:02.633Z,20.00
2022-08-19T16:40:30.604Z,20.00
2022-08-19T16:42:59.903Z,19.90
2022-08-19T16:45:28.071Z,19.90
2022-08-19T16:47:58.173Z,19.80
2022-08-19T16:50:47.729Z,19.80
2022-08-19T16:53:14.292Z,19.80
2022-08-19T16:55:43.717Z,19.80
2022-08-19T16:58:13.015Z,19.80
2022-08-19T17:00:41.183Z,19.70
2022-08-19T17:03:14.763Z,19.70
2022-08-19T17:05:44.144Z,19.70
2022-08-19T17:08:12.240Z,19.60
2022-08-19T17:10:45.683Z,19.60
2022-08-19T17:13:27.915Z,19.50
2022-08-19T17:15:56.135Z,19.50
2022-08-19T17:18:25.426Z,19.40
2022-08-19T17:20:57.723Z,19.40
2022-08-19T17:23:42.521Z,19.30
2022-08-19T17:26:14.049Z,19.30
2022-08-19T17:28:50.131Z,19.30
2022-08-19T17:31:19.414Z,19.20
2022-08-19T17:33:48.101Z,19.20
2022-08-19T17:36:17.779Z,19.20
2022-08-19T17:38:46.247Z,19.20
2022-08-19T17:41:14.316Z,19.20
2022-08-19T17:43:43.969Z,19.20
2022-08-19T17:46:17.832Z,19.10
2022-08-19T17:48:51.761Z,19.10
2022-08-19T17:51:23.094Z,19.10
2022-08-19T17:53:53.763Z,19.10
2022-08-19T17:56:23.552Z,19.10
2022-08-19T17:58:57.738Z,19.10
2022-08-19T18:01:43.903Z,19.10
2022-08-19T18:04:19.793Z,19.10
2022-08-19T18:06:53.318Z,19.00
2022-08-19T18:09:23.845Z,19.10
2022-08-19T18:11:53.673Z,19.00
2022-08-19T18:14:28.141Z,18.90
2022-08-19T18:17:00.555Z,19.00
2022-08-19T18:19:30.129Z,19.10
2022-08-19T18:22:12.216Z,19.00
2022-08-19T18:24:40.892Z,19.00
2022-08-19T18:27:08.890Z,19.00
2022-08-19T18:29:38.661Z,19.00
2022-08-19T18:32:13.422Z,19.00
2022-08-19T18:34:42.748Z,19.00
2022-08-19T18:37:12.301Z,19.00
2022-08-19T18:39:59.472Z,19.00
2022-08-19T18:42:45.740Z,18.90
2022-08-19T18:45:32.352Z,18.90
2022-08-19T18:48:26.554Z,18.90
2022-08-19T18:51:00.319Z,18.90
2022-08-19T18:53:31.694Z,18.90
2022-08-19T18:55:59.899Z,18.90
2022-08-19T18:58:32.500Z,18.80
2022-08-19T19:01:02.897Z,18.70
2022-08-19T19:03:32.668Z,18.60
2022-08-19T19:06:03.686Z,18.70
2022-08-19T19:08:31.930Z,18.60
2022-08-19T19:11:05.128Z,18.60
2022-08-19T19:13:34.072Z,18.70
2022-08-19T19:16:02.808Z,18.70
2022-08-19T19:18:33.372Z,18.70
2022-08-19T19:21:01.553Z,18.70
2022-08-19T19:23:33.558Z,18.70
2022-08-19T19:26:02.082Z,18.70
2022-08-19T19:28:30.069Z,18.70
2022-08-19T19:30:59.046Z,18.70
2022-08-19T19:33:27.497Z,18.60
2022-08-19T19:35:56.967Z,18.60
2022-08-19T19:38:24.888Z,18.70
2022-08-19T19:40:52.921Z,18.60
2022-08-19T19:43:21.307Z,18.60
2022-08-19T19:45:49.650Z,18.70
2022-08-19T19:48:17.560Z,18.70
2022-08-19T19:50:51.799Z,18.70
2022-08-19T19:53:27.807Z,18.70
2022-08-19T19:55:59.151Z,18.70
2022-08-19T19:58:28.833Z,18.70
2022-08-19T20:00:58.196Z,18.70
2022-08-19T20:03:26.116Z,18.60
2022-08-19T20:05:54.912Z,18.70
2022-08-19T20:08:40.876Z,18.70
2022-08-19T20:11:10.345Z,18.70
2022-08-19T20:13:40.797Z,18.60
2022-08-19T20:16:09.004Z,18.60
2022-08-19T20:18:36.981Z,18.60
2022-08-19T20:21:05.472Z,18.60
2022-08-19T20:23:34.716Z,18.60
2022-08-19T20:26:05.243Z,18.60
2022-08-19T20:28:37.869Z,18.60
2022-08-19T20:31:11.424Z,18.60
2022-08-19T20:33:39.610Z,18.60
2022-08-19T20:36:08.104Z,18.60
2022-08-19T20:38:35.985Z,18.60
2022-08-19T20:41:05.043Z,18.70
2022-08-19T20:43:34.320Z,18.60
2022-08-19T20:46:03.638Z,18.70
2022-08-19T20:48:32.024Z,18.70
2022-08-19T20:51:00.226Z,18.60
2022-08-19T20:53:28.473Z,18.60
2022-08-19T20:55:58.702Z,18.60
2022-08-19T20:58:28.926Z,18.70
2022-08-19T21:01:01.655Z,18.60
2022-08-19T21:03:42.443Z,18.70
2022-08-19T21:06:12.925Z,18.70
2022-08-19T21:08:42.135Z,18.70
2022-08-19T21:11:10.415Z,18.70
2022-08-19T21:13:38.632Z,18.70
2022-08-19T21:16:09.581Z,18.70
2022-08-19T21:18:38.906Z,18.70
2022-08-19T21:21:07.199Z,18.80
2022-08-19T21:23:35.343Z,18.80
2022-08-19T21:26:03.582Z,18.80
2022-08-19T21:28:36.016Z,18.80
2022-08-19T21:31:06.194Z,18.90
2022-08-19T21:33:34.268Z,18.90
2022-08-19T21:36:04.501Z,18.90
2022-08-19T21:38:32.778Z,18.90
2022-08-19T21:41:03.607Z,18.90
2022-08-19T21:43:34.850Z,18.90
2022-08-19T21:46:02.967Z,18.90
2022-08-19T21:48:31.111Z,18.90
2022-08-19T21:50:59.181Z,18.90
2022-08-19T21:53:34.296Z,19.00
2022-08-19T21:56:03.022Z,18.90
2022-08-19T21:58:31.532Z,18.90
2022-08-19T22:00:59.961Z,18.90
2022-08-19T22:03:28.311Z,18.90
2022-08-19T22:05:56.237Z,18.90
2022-08-19T22:08:24.210Z,18.90
2022-08-19T22:10:53.772Z,18.80
2022-08-19T22:13:21.845Z,18.80
2022-08-19T22:15:55.208Z,18.80
2022-08-19T22:18:23.154Z,18.80
2022-08-19T22:20:51.333Z,18.80
2022-08-19T22:23:19.394Z,18.70
2022-08-19T22:25:48.656Z,18.70
2022-08-19T22:28:27.923Z,18.70
2022-08-19T22:30:56.978Z,18.70
2022-08-19T22:33:27.650Z,18.60
2022-08-19T22:35:55.576Z,18.60
2022-08-19T22:38:24.567Z,18.70
2022-08-19T22:40:54.032Z,18.60
2022-08-19T22:43:26.029Z,18.60
2022-08-19T22:45:55.522Z,18.60
2022-08-19T22:48:28.982Z,18.60
2022-08-19T22:51:15.488Z,18.60
2022-08-19T22:53:46.537Z,18.50
2022-08-19T22:56:18.013Z,18.50
2022-08-19T22:58:50.040Z,18.60
2022-08-19T23:01:27.711Z,18.50
2022-08-19T23:03:58.958Z,18.50
2022-08-19T23:06:30.478Z,18.60
2022-08-19T23:09:01.426Z,18.60
2022-08-19T23:11:34.683Z,18.60
2022-08-19T23:14:04.928Z,18.70
2022-08-19T23:16:35.693Z,18.60
2022-08-19T23:19:04.674Z,18.60
2022-08-19T23:21:32.633Z,18.60
2022-08-19T23:24:00.573Z,18.60
2022-08-19T23:26:30.700Z,18.60
2022-08-19T23:29:20.911Z,18.60
2022-08-19T23:31:49.826Z,18.70
2022-08-19T23:34:18.025Z,18.60
2022-08-19T23:36:46.341Z,18.60
2022-08-19T23:39:14.200Z,18.60
2022-08-19T23:41:42.126Z,18.50
2022-08-19T23:44:14.601Z,18.50
2022-08-19T23:46:55.182Z,18.60
2022-08-19T23:49:24.488Z,18.50
2022-08-19T23:51:52.450Z,18.40
2022-08-19T23:54:20.385Z,18.40
2022-08-19T23:56:48.283Z,18.40
2022-08-19T23:59:19.171Z,18.40
